AirNav   Everest Fuels
 
 1014 users online  

9K8 Kingman Airport - Clyde Cessna Field
Kingman, Kansas, USA

GOING TO KINGMAN?


FAA INFORMATION EFFECTIVE 07 NOVEMBER 2019

Location

FAA Identifier: 9K8
Lat/Long: 37-40-08.5000N 098-07-26.0000W
37-40.141667N 098-07.433333W
37.6690278,-98.1238889
(estimated)
Elevation: 1606.7 ft. / 489.7 m (surveyed)
Variation: 06E (2005)
From city: 1 mile NW of KINGMAN, KS
Time zone: UTC -6 (UTC -5 during Daylight Saving Time)
Zip code: 67068

Airport Operations

Airport use: Open to the public
Activation date: 08/1945
Control tower: no
ARTCC: KANSAS CITY CENTER
FSS: WICHITA FLIGHT SERVICE STATION
NOTAMs facility: ICT (NOTAM-D service available)
Attendance: MON-FRI 0830-2000
Wind indicator: lighted
Segmented circle: yes
Lights: ACTVT REIL RWY 18 & 36; PAPI RWY 18 & 36; HIRL 18/36 - CTAF.
Beacon: white-green (lighted land airport)
Operates sunset to sunrise.

Airport Communications

CTAF/UNICOM: 122.8
WX AWOS-3: 119.325 (620-532-1272)
WICHITA APPROACH: 125.5
WICHITA DEPARTURE: 125.5

Nearby radio navigation aids

VOR radial/distance  VOR name  Freq  Var
HUTr201/21.6HUTCHINSON VOR/DME116.8004E
ICTr253/26.0WICHITA VORTAC113.8007E
ANYr357/30.7ANTHONY VORTAC112.9007E

 
NDB name  Hdg/Dist  Freq  Var  ID
PRATT090/29.835607EPTT .--. - -

Airport Services

Fuel available: 100LL
SELF SVC FUEL AVBL WITH CREDIT CARD.
Parking: hangars and tiedowns
Airframe service: MAJOR
Powerplant service: MAJOR
Bottled oxygen: NONE
Bulk oxygen: NONE

Runway Information

Runway 18/36

Dimensions: 4300 x 75 ft. / 1311 x 23 m
Surface: concrete, in fair condition
Weight bearing capacity: 
PCN 11 /R/C/X/U
Single wheel: 30.0
Double wheel: 30.0
Runway edge lights: high intensity
RUNWAY 18  RUNWAY 36
Latitude: 37-40.435357N37-39.734017N
Longitude: 098-07.279293W098-07.406043W
Elevation: 1598.9 ft.1596.7 ft.
Traffic pattern: rightleft
Runway heading: 182 magnetic, 188 true002 magnetic, 008 true
Markings: nonprecision, in good conditionnonprecision, in good condition
Visual slope indicator: 4-light PAPI on left (3.00 degrees glide path)4-light PAPI on left (3.00 degrees glide path)
Runway end identifier lights: yesyes
Touchdown point: yes, no lightsyes, no lights
Obstructions: 15 ft. road, 550 ft. from runway, 24:1 slope to clear45 ft. trees, 1290 ft. from runway, 24:1 slope to clear

Runway 11/29

Dimensions: 3400 x 60 ft. / 1036 x 18 m
Surface: concrete, in good condition
Weight bearing capacity: 
PCN 11 /R/C/X/U
Single wheel: 30.0
Double wheel: 30.0
RUNWAY 11  RUNWAY 29
Latitude: 37-40.336685N37-40.087660N
Longitude: 098-07.864075W098-07.232798W
Elevation: 1606.7 ft.1592.6 ft.
Traffic pattern: leftright
Runway heading: 111 magnetic, 117 true291 magnetic, 297 true
Markings: nonprecision, in good conditionnonprecision, in good condition
Touchdown point: yes, no lightsyes, no lights
Obstructions: 29 ft. trees, 1350 ft. from runway, 39:1 slope to clear30 ft. pline, marked, 978 ft. from runway, 25:1 slope to clear
POWER LINE MARKED WITH ORANGE BALLS.

Airport Ownership and Management from official FAA records

Ownership: Publicly-owned
Owner: CITY OF KINGMAN
324 NORTH MAIN
KINGMAN, KS 67068
Phone 620-532-3111
Manager: EZRA OLSON
PO BOX 262
KINGMAN, KS 67068
Phone (620) 532-1279

Airport Operational Statistics

Aircraft based on the field: 23
Single engine airplanes: 23
    
Aircraft operations: avg 26/day *
60% local general aviation
40% transient general aviation
* for 12-month period ending 31 July 2018

Additional Remarks

FOR CD CTC WICHITA APCH AT 316-350-1520.

Instrument Procedures

NOTE: All procedures below are presented as PDF files. If you need a reader for these files, you should download the free Adobe Reader.

NOT FOR NAVIGATION. Please procure official charts for flight.
FAA instrument procedures published for use from 07 November 2019 at 0901Z to 05 December 2019 at 0900Z.

 
IAPs - Instrument Approach Procedures
RNAV (GPS) RWY 18   download (219KB)
RNAV (GPS) RWY 36   download (227KB)
NOTE: Special Take-Off Minimums/Departure Procedures apply   download (273KB)

Other nearby airports with instrument procedures:

8K2 - Harper Municipal Airport (24 nm S)
KHUT - Hutchinson Regional Airport (27 nm NE)
KPTT - Pratt Regional Airport (30 nm W)
KANY - Anthony Municipal Airport (31 nm S)
KICT - Wichita Dwight D Eisenhower National Airport (33 nm E)
 
Loc | Ops | Rwys | IFR | FBO | Links
Com | Nav | Svcs | Stats | Notes

Kansas City Aviation Department
 
Area around 9K8 (Kingman Airport - Clyde Cessna Field)
 
Road maps at: MapQuest Bing Google
 
Aerial photo
WARNING: Photo may not be current or correct
Aerial photo of 9K8 (Kingman Airport - Clyde Cessna Field)
Do you have a better or more recent aerial photo of Kingman Airport - Clyde Cessna Field that you would like to share? If so, please send us your photo.

 
Sectional chart

 
Airport distance calculator
Flying to Kingman Airport - Clyde Cessna Field? Find the distance to fly.

From to 9K8

Sunrise and sunset
Times for 16-Nov-2019
 Local
(UTC-6)
 Zulu
(UTC)
Morning civil twilight06:4712:47
Sunrise07:1513:15
Sunset17:2023:20
Evening civil twilight17:4823:48

Current date and time
Zulu (UTC)  16-Nov-2019 21:05:40
Local (UTC-6)  16-Nov-2019 15:05:40
 
METAR
KHUT 
27nm NE 
162052Z 17020G30KT 10SM CLR 18/M01 A2992 RMK AO2 PK WND 18034/2001 SLP125 T01781006 56033
KPTT 
30nm W 
162035Z AUTO 18018G27KT 10SM CLR 18/00 A2991 RMK AO2 T01810000
KP28 
31nm SW 
162056Z AUTO 17018G30KT 19/M01 A2990 RMK AO1 PK WND 17031/2017 SLP123 T01891006 56043
KICT 
33nm E 
162053Z 17015G29KT 10SM SCT150 BKN250 18/M01 A2995 RMK AO2 PK WND 18033/2018 SLP143 T01781006 56035 $
KLYO 
41nm N 
162055Z AUTO 18024KT 10SM CLR 18/01 A2992 RMK AO2 T01810012
KIAB 
41nm E 
162056Z AUTO 14017G24KT 9SM CLR 17/M02 A2997 RMK AO2 PK WND 14028/32 SLP153 T01651016 57035 $
KBEC 
43nm E 
162055Z AUTO 18019G25KT 10SM CLR 17/M01 A2997 RMK AO2 T01711006
KAAO 
43nm E 
162054Z AUTO 18015G26KT 10SM CLR 17/M01 A2997 RMK AO2 PK WND 17030/2006 SLP149 T01721006 56034
KEWK 
46nm NE 
161856Z AUTO 17020KT 10SM CLR 15/M01 A3001 RMK AO2 PK WND 18027/1847 SLP162 T01501006
TAF
KHUT 
27nm NE 
161724Z 1618/1718 18017G25KT P6SM SCT150 FM170000 17010KT P6SM OVC150 FM170600 VRB05KT P6SM OVC130 FM170800 34014G21KT P6SM OVC080 FM171300 33012KT P6SM SKC
KICT 
33nm E 
161724Z 1618/1718 18019G27KT P6SM SCT150 SCT250 FM170000 17014KT P6SM OVC150 FM170800 VRB04KT P6SM OVC130 FM171000 34010G17KT P6SM OVC080 FM171500 34014KT P6SM SKC
NOTAMs
Click for the latest NOTAMs
NOTAMs are issued by the DoD/FAA and will open in a separate window not controlled by AirNav.

 

 
 

FBO, Fuel Providers, and Aircraft Ground Support

  
 Business Name 
 
 Contact 
 
 Services / Description 
 
Fuel Prices
 
Comments
  
City of Kingman 620-532-1279
[web site]
[email]
Aviation fuel, Aircraft parking (ramp or tiedown), Flight training, Aircraft rental, Courtesy transportation, Pilots lounge / snooze room, Restrooms

More info about City of Kingman
independent
100LL
AS $4.90 
 Updated 04-Nov-2019
 
   write
AS=Assisted/Self Service
Update Fuel Prices
 

Aviation Businesses, Services, and Facilities

  
 Business Name 
 
 Contact 
 
 Services / Description 
 
Distance
 
Comments
  
Prairie Wind Aviation 620-755-4440
[email]
Flight training, Aircraft rental

More info about Prairie Wind Aviation
on airport  
   write
 

Would you like to see your business listed on this page?

 If your business provides an interesting product or service to pilots, flight crews, aircraft, or users of the Kingman Airport - Clyde Cessna Field, you should consider listing it here.  To start the listing process, click on the button below
 
Add a business
 

Other Pages about Kingman Airport - Clyde Cessna Field

www.cityofkingman.com/airport
 
Update a link
 
Copyright © AirNav, LLC. All rights reserved. Privacy Policy  Contact